Time;durP1;ratioP1;P1;durP2;ratioP2;P2;SDS_P1;SDS_P2;PMS_P1;PMS_P2;Temp;Humidity;BMP_temperature;BMP_pressure;BME280_temperature;BME280_humidity;BME280_pressure;Samples;Min_cycle;Max_cycle;Signal;HPM_P1;HPM_P2
2022/03/17 00:00:16;;;;;;;22.33;12.70;;;;;;;;;;5011607;28;20096;-82
2022/03/17 00:02:42;;;;;;;22.80;13.23;;;;;;;;;;5012194;28;20054;-81
2022/03/17 00:05:09;;;;;;;21.88;13.27;;;;;;;;;;5030050;28;20084;-82
2022/03/17 00:07:36;;;;;;;22.45;12.93;;;;;;;;;;5028081;28;20053;-82
2022/03/17 00:10:08;;;;;;;23.95;13.10;;;;;;;;;;5011672;28;20050;-82
2022/03/17 00:12:34;;;;;;;24.88;12.90;;;;;;;;;;5009471;28;20521;-82
2022/03/17 00:15:01;;;;;;;26.48;13.05;;;;;;;;;;5012175;28;20581;-82
2022/03/17 00:17:28;;;;;;;22.23;13.18;;;;;;;;;;5011537;28;20057;-82
2022/03/17 00:19:54;;;;;;;21.15;12.75;;;;;;;;;;5028130;28;20101;-82
2022/03/17 00:22:21;;;;;;;23.67;13.23;;;;;;;;;;5029393;28;20054;-82
2022/03/17 00:24:47;;;;;;;23.30;13.45;;;;;;;;;;5029021;28;20112;-81
2022/03/17 00:27:14;;;;;;;23.92;13.15;;;;;;;;;;5028802;28;20069;-81
2022/03/17 00:29:41;;;;;;;26.90;13.98;;;;;;;;;;5011664;28;20045;-81
2022/03/17 00:32:08;;;;;;;22.80;12.68;;;;;;;;;;5029104;28;20500;-81
2022/03/17 00:35:35;;;;;;;26.13;13.70;;;;;;;;;;5025237;28;20081;-81
2022/03/17 00:37:23;;;;;;;24.60;13.55;;;;;;;;;;5025817;28;20116;-82
2022/03/17 00:39:50;;;;;;;26.60;13.57;;;;;;;;;;5011961;28;20054;-82
2022/03/17 00:42:17;;;;;;;26.20;13.55;;;;;;;;;;5012545;28;20869;-82
2022/03/17 00:44:44;;;;;;;24.98;14.32;;;;;;;;;;5028107;28;20053;-82
2022/03/17 00:47:10;;;;;;;25.60;13.93;;;;;;;;;;5010342;28;20140;-82
2022/03/17 00:49:37;;;;;;;26.88;13.90;;;;;;;;;;5010792;28;20897;-81
2022/03/17 00:52:09;;;;;;;25.08;13.45;;;;;;;;;;5010554;28;20049;-82
2022/03/17 00:54:36;;;;;;;24.20;14.18;;;;;;;;;;5011099;28;20542;-82
2022/03/17 00:57:03;;;;;;;24.40;13.15;;;;;;;;;;5028841;28;20076;-82
2022/03/17 00:59:30;;;;;;;21.70;12.93;;;;;;;;;;5010833;28;20069;-82
2022/03/17 01:01:57;;;;;;;24.08;13.18;;;;;;;;;;5010620;28;20104;-82
2022/03/17 01:04:23;;;;;;;26.83;13.75;;;;;;;;;;5007735;28;20145;-81
2022/03/17 01:06:50;;;;;;;22.85;13.77;;;;;;;;;;5015459;28;20050;-82
2022/03/17 01:09:16;;;;;;;26.60;13.82;;;;;;;;;;5010776;28;20050;-82
2022/03/17 01:11:43;;;;;;;22.85;13.07;;;;;;;;;;5008200;28;20116;-82
2022/03/17 01:14:09;;;;;;;27.10;13.63;;;;;;;;;;5022181;28;20046;-81
2022/03/17 01:16:35;;;;;;;24.30;13.35;;;;;;;;;;5010570;28;20050;-82
2022/03/17 01:19:02;;;;;;;25.48;13.30;;;;;;;;;;5028746;28;20089;-82
2022/03/17 01:21:29;;;;;;;24.85;13.18;;;;;;;;;;5011118;28;20101;-82
2022/03/17 01:23:55;;;;;;;23.10;12.68;;;;;;;;;;5010443;28;20054;-82
2022/03/17 01:26:21;;;;;;;25.27;14.55;;;;;;;;;;5010788;28;20054;-81
2022/03/17 01:28:48;;;;;;;22.85;13.55;;;;;;;;;;5012934;28;20050;-82
2022/03/17 01:31:15;;;;;;;23.83;13.52;;;;;;;;;;5030932;28;20054;-81
2022/03/17 01:33:42;;;;;;;25.95;14.05;;;;;;;;;;5014252;28;20060;-81
2022/03/17 01:36:08;;;;;;;25.63;14.05;;;;;;;;;;5028994;28;20046;-81
2022/03/17 01:38:34;;;;;;;24.90;14.45;;;;;;;;;;5014193;28;20053;-81
2022/03/17 01:41:01;;;;;;;24.60;14.05;;;;;;;;;;5014159;28;20081;-82
2022/03/17 01:43:27;;;;;;;24.02;14.30;;;;;;;;;;5031034;28;20526;-82
2022/03/17 01:45:53;;;;;;;26.65;13.55;;;;;;;;;;5031542;28;20572;-82
2022/03/17 01:48:21;;;;;;;28.67;13.52;;;;;;;;;;5013379;28;20049;-82
2022/03/17 01:50:53;;;;;;;27.30;14.07;;;;;;;;;;5015126;28;20058;-82
2022/03/17 01:53:20;;;;;;;26.13;13.80;;;;;;;;;;5032018;28;20112;-82
2022/03/17 01:55:47;;;;;;;25.33;13.02;;;;;;;;;;5014787;28;20046;-82
2022/03/17 01:58:13;;;;;;;29.60;14.05;;;;;;;;;;5013142;28;20682;-82
2022/03/17 02:00:40;;;;;;;25.80;13.63;;;;;;;;;;5013382;28;20062;-82
2022/03/17 02:03:08;;;;;;;24.92;13.90;;;;;;;;;;5013716;28;20057;-82
2022/03/17 02:05:34;;;;;;;29.20;13.65;;;;;;;;;;5030930;28;20061;-82
2022/03/17 02:08:01;;;;;;;26.73;13.93;;;;;;;;;;5031004;28;20555;-81
2022/03/17 02:13:08;;;;;;;27.65;13.85;;;;;;;;;;5014127;28;20108;-81
2022/03/17 02:13:14;;;;;;;26.20;13.93;;;;;;;;;;5017055;28;20058;-81
2022/03/17 02:15:43;;;;;;;27.13;14.77;;;;;;;;;;5013770;28;20054;-82
2022/03/17 02:18:09;;;;;;;24.42;14.10;;;;;;;;;;5013544;28;20587;-82
2022/03/17 02:20:36;;;;;;;24.83;13.65;;;;;;;;;;5014404;28;20112;-82
2022/03/17 02:25:50;;;;;;;26.88;14.40;;;;;;;;;;5027444;28;20058;-81
2022/03/17 02:28:16;;;;;;;26.52;14.60;;;;;;;;;;5030575;28;20057;-81
2022/03/17 02:30:43;;;;;;;26.63;14.07;;;;;;;;;;5030948;28;20054;-82
2022/03/17 02:33:10;;;;;;;29.25;14.95;;;;;;;;;;5030640;28;20058;-81
2022/03/17 02:35:37;;;;;;;27.50;15.20;;;;;;;;;;5013178;28;20049;-81
2022/03/17 02:38:05;;;;;;;28.85;15.07;;;;;;;;;;5012631;28;20057;-81
2022/03/17 02:40:32;;;;;;;31.33;15.07;;;;;;;;;;5029747;28;20081;-82
2022/03/17 02:42:59;;;;;;;29.67;14.88;;;;;;;;;;5030893;28;20034;-82
2022/03/17 02:45:26;;;;;;;31.70;16.02;;;;;;;;;;5013201;28;20124;-81
2022/03/17 02:47:52;;;;;;;31.55;16.40;;;;;;;;;;5010782;28;20606;-82
2022/03/17 02:50:19;;;;;;;36.58;16.70;;;;;;;;;;5030611;28;20197;-81
2022/03/17 02:52:45;;;;;;;36.10;17.23;;;;;;;;;;5030425;28;20054;-81
2022/03/17 02:55:12;;;;;;;33.65;18.30;;;;;;;;;;5030403;28;20057;-81
2022/03/17 02:57:39;;;;;;;32.67;16.90;;;;;;;;;;5012999;28;20050;-81
2022/03/17 03:00:07;;;;;;;38.72;19.55;;;;;;;;;;5025063;28;20112;-81
2022/03/17 03:02:33;;;;;;;35.28;17.70;;;;;;;;;;5030646;28;20050;-82
2022/03/17 03:04:59;;;;;;;35.00;18.20;;;;;;;;;;5012897;28;20513;-81
2022/03/17 03:07:26;;;;;;;40.00;19.23;;;;;;;;;;5012114;28;20582;-81
2022/03/17 03:09:54;;;;;;;39.30;18.92;;;;;;;;;;5029792;28;20050;-81
2022/03/17 03:12:20;;;;;;;35.60;18.20;;;;;;;;;;5012368;28;20108;-80
2022/03/17 03:14:47;;;;;;;32.30;17.13;;;;;;;;;;5030738;28;20069;-80
2022/03/17 03:17:14;;;;;;;27.35;13.52;;;;;;;;;;5011771;28;20054;-81
2022/03/17 03:19:40;;;;;;;24.52;12.90;;;;;;;;;;5030190;28;20113;-81
2022/03/17 03:22:07;;;;;;;24.25;12.35;;;;;;;;;;5011403;28;20081;-82
2022/03/17 03:24:33;;;;;;;21.45;11.60;;;;;;;;;;5011884;28;20112;-81
2022/03/17 03:26:59;;;;;;;14.65;8.65;;;;;;;;;;5012621;28;20104;-81
2022/03/17 03:29:26;;;;;;;14.93;7.70;;;;;;;;;;5012246;28;20085;-80
2022/03/17 03:31:53;;;;;;;11.60;5.70;;;;;;;;;;5012684;28;20512;-80
2022/03/17 03:34:20;;;;;;;7.95;4.28;;;;;;;;;;5030397;28;20576;-80
2022/03/17 03:39:33;;;;;;;8.75;4.43;;;;;;;;;;5027511;28;20472;-81
2022/03/17 03:41:59;;;;;;;9.70;4.00;;;;;;;;;;5029211;28;20200;-81
2022/03/17 03:44:26;;;;;;;8.93;3.83;;;;;;;;;;5012606;28;20075;-80
2022/03/17 03:46:52;;;;;;;8.02;3.60;;;;;;;;;;5012180;28;20057;-80
2022/03/17 03:49:19;;;;;;;7.05;3.40;;;;;;;;;;5011574;28;20054;-81
2022/03/17 03:51:45;;;;;;;7.22;3.28;;;;;;;;;;5027602;28;20061;-81
2022/03/17 03:54:18;;;;;;;9.20;3.10;;;;;;;;;;5012393;28;20112;-80
2022/03/17 03:56:45;;;;;;;8.48;3.33;;;;;;;;;;4997197;28;20125;-81
2022/03/17 04:01:47;;;;;;;7.47;3.50;;;;;;;;;;5015221;28;20054;-80
2022/03/17 04:04:18;;;;;;;7.63;3.67;;;;;;;;;;5033411;28;20064;-80
2022/03/17 04:06:46;;;;;;;9.20;3.47;;;;;;;;;;5034248;28;20974;-81
2022/03/17 04:09:13;;;;;;;6.75;3.90;;;;;;;;;;5016357;28;20518;-81
2022/03/17 04:11:40;;;;;;;8.55;3.92;;;;;;;;;;5011936;28;20054;-81
2022/03/17 04:14:07;;;;;;;7.32;4.10;;;;;;;;;;5024692;28;20084;-81
2022/03/17 04:16:33;;;;;;;8.65;4.32;;;;;;;;;;5033293;28;20123;-81
2022/03/17 04:19:00;;;;;;;15.18;5.80;;;;;;;;;;5033648;28;20062;-81
2022/03/17 04:21:27;;;;;;;8.40;5.22;;;;;;;;;;5016048;28;20564;-81
2022/03/17 04:23:54;;;;;;;11.32;5.95;;;;;;;;;;5014996;28;20910;-81
2022/03/17 04:26:20;;;;;;;11.90;6.47;;;;;;;;;;5011411;28;20060;-81
2022/03/17 04:28:46;;;;;;;15.23;6.93;;;;;;;;;;5013487;28;20104;-81
2022/03/17 04:31:13;;;;;;;14.15;7.22;;;;;;;;;;5031130;28;20073;-81
2022/03/17 04:33:40;;;;;;;11.98;7.15;;;;;;;;;;5013501;28;20057;-81
2022/03/17 04:36:07;;;;;;;13.75;6.95;;;;;;;;;;5030235;28;20057;-81
2022/03/17 04:38:34;;;;;;;17.42;7.90;;;;;;;;;;5029629;28;20105;-80
2022/03/17 04:41:00;;;;;;;18.05;8.30;;;;;;;;;;5031039;28;20097;-81
2022/03/17 04:43:26;;;;;;;18.10;7.93;;;;;;;;;;5030791;28;20594;-81
2022/03/17 04:45:53;;;;;;;16.90;8.52;;;;;;;;;;5030416;28;20114;-81
2022/03/17 04:48:19;;;;;;;17.88;8.38;;;;;;;;;;5029035;28;20722;-81
2022/03/17 04:50:46;;;;;;;16.33;7.72;;;;;;;;;;5012480;28;20162;-81
2022/03/17 04:53:27;;;;;;;23.17;9.32;;;;;;;;;;5013118;28;20066;-81
2022/03/17 04:55:54;;;;;;;15.32;5.93;;;;;;;;;;5030085;28;20050;-81
2022/03/17 04:58:21;;;;;;;14.43;4.90;;;;;;;;;;5012407;28;20058;-81
2022/03/17 05:00:47;;;;;;;9.32;4.28;;;;;;;;;;5030069;28;20100;-81
2022/03/17 05:03:14;;;;;;;12.52;4.10;;;;;;;;;;5014414;28;20046;-81
2022/03/17 05:05:41;;;;;;;10.48;3.70;;;;;;;;;;5016215;28;20444;-81
2022/03/17 05:08:07;;;;;;;14.35;3.85;;;;;;;;;;5015527;28;20907;-81
2022/03/17 05:10:35;;;;;;;15.02;3.80;;;;;;;;;;5030199;28;20057;-80
2022/03/17 05:13:02;;;;;;;16.23;3.80;;;;;;;;;;5015132;28;20451;-81
2022/03/17 05:15:29;;;;;;;9.73;2.72;;;;;;;;;;5016044;28;20105;-81
2022/03/17 05:17:55;;;;;;;10.63;3.28;;;;;;;;;;5033926;28;20073;-81
2022/03/17 05:20:22;;;;;;;16.13;3.40;;;;;;;;;;5015611;28;20058;-81
2022/03/17 05:22:48;;;;;;;15.48;3.45;;;;;;;;;;5016074;28;20054;-81
2022/03/17 05:25:15;;;;;;;16.75;2.70;;;;;;;;;;5016068;28;20712;-81
2022/03/17 05:27:43;;;;;;;13.27;2.90;;;;;;;;;;5015487;28;20049;-81
2022/03/17 05:30:10;;;;;;;12.20;2.53;;;;;;;;;;5032466;28;20485;-81
2022/03/17 05:32:36;;;;;;;16.23;2.42;;;;;;;;;;5032918;28;20050;-81
2022/03/17 05:35:03;;;;;;;11.15;2.47;;;;;;;;;;5032411;28;20083;-81
2022/03/17 05:37:29;;;;;;;9.10;2.20;;;;;;;;;;5014686;28;20080;-81
2022/03/17 05:39:55;;;;;;;11.80;2.80;;;;;;;;;;5030799;28;20087;-81
2022/03/17 05:42:22;;;;;;;16.58;2.58;;;;;;;;;;5033798;28;20096;-81
2022/03/17 05:44:48;;;;;;;7.15;2.25;;;;;;;;;;5034420;28;20089;-81
2022/03/17 05:47:17;;;;;;;9.65;1.80;;;;;;;;;;5033632;28;20050;-82
2022/03/17 05:49:43;;;;;;;9.10;2.40;;;;;;;;;;5033488;28;20086;-83
2022/03/17 05:52:10;;;;;;;8.65;1.90;;;;;;;;;;5016496;28;20081;-83
2022/03/17 05:54:36;;;;;;;12.70;2.50;;;;;;;;;;5015501;28;20128;-82
2022/03/17 05:57:04;;;;;;;8.18;2.08;;;;;;;;;;5014192;28;20057;-83
2022/03/17 05:59:30;;;;;;;10.23;2.53;;;;;;;;;;5032931;28;20136;-82
2022/03/17 06:01:57;;;;;;;14.15;2.55;;;;;;;;;;5031469;28;20058;-82
2022/03/17 06:04:42;;;;;;;9.43;1.90;;;;;;;;;;5016411;28;20054;-82
2022/03/17 06:07:08;;;;;;;12.32;2.13;;;;;;;;;;5031013;28;20595;-83
2022/03/17 06:09:34;;;;;;;13.80;2.28;;;;;;;;;;5031478;28;20467;-82
2022/03/17 06:12:02;;;;;;;12.98;2.10;;;;;;;;;;5013221;28;20597;-82
2022/03/17 06:14:29;;;;;;;12.20;2.30;;;;;;;;;;5008074;28;20473;-84
2022/03/17 06:16:55;;;;;;;13.13;2.63;;;;;;;;;;5013669;28;20050;-82
2022/03/17 06:19:22;;;;;;;15.43;2.50;;;;;;;;;;5029644;28;20058;-83
2022/03/17 06:21:48;;;;;;;15.93;1.80;;;;;;;;;;5012882;28;20057;-83
2022/03/17 06:24:15;;;;;;;11.38;2.15;;;;;;;;;;5010923;28;20058;-82
2022/03/17 06:26:41;;;;;;;14.35;2.38;;;;;;;;;;5029449;28;20050;-82
2022/03/17 06:29:08;;;;;;;12.68;1.90;;;;;;;;;;5024339;28;20101;-82
2022/03/17 06:31:37;;;;;;;13.18;2.20;;;;;;;;;;5009517;28;20053;-83
2022/03/17 06:34:03;;;;;;;20.13;2.38;;;;;;;;;;5018192;28;20628;-82
2022/03/17 06:36:29;;;;;;;13.95;2.20;;;;;;;;;;5022041;28;20066;-82
2022/03/17 06:38:56;;;;;;;12.48;2.42;;;;;;;;;;5030950;28;20537;-82
2022/03/17 06:41:22;;;;;;;18.95;2.33;;;;;;;;;;5028878;28;20843;-82
2022/03/17 06:43:49;;;;;;;14.65;3.03;;;;;;;;;;5025634;28;20084;-82
2022/03/17 06:46:15;;;;;;;10.27;1.58;;;;;;;;;;5014315;28;20509;-83
2022/03/17 06:48:41;;;;;;;10.85;1.40;;;;;;;;;;5031093;28;20057;-82
2022/03/17 06:51:08;;;;;;;10.60;2.00;;;;;;;;;;5017581;28;20457;-82
2022/03/17 06:53:35;;;;;;;16.15;2.20;;;;;;;;;;5031254;28;20527;-81
2022/03/17 06:56:01;;;;;;;10.43;1.48;;;;;;;;;;5022587;28;20061;-82
2022/03/17 06:58:27;;;;;;;17.40;2.00;;;;;;;;;;5030227;28;20061;-82
2022/03/17 07:00:54;;;;;;;13.57;1.88;;;;;;;;;;5031332;28;20057;-82
2022/03/17 07:03:21;;;;;;;14.23;2.65;;;;;;;;;;5026315;28;20080;-81
2022/03/17 07:05:47;;;;;;;11.45;1.88;;;;;;;;;;5029511;28;20058;-81
2022/03/17 07:08:14;;;;;;;13.43;2.47;;;;;;;;;;4998834;28;20058;-81
2022/03/17 07:10:42;;;;;;;13.57;2.05;;;;;;;;;;5023286;28;20081;-81
2022/03/17 07:13:09;;;;;;;13.95;1.77;;;;;;;;;;5032332;28;20058;-81
2022/03/17 07:15:35;;;;;;;15.90;2.50;;;;;;;;;;5013474;28;20053;-81
2022/03/17 07:18:02;;;;;;;13.75;1.90;;;;;;;;;;5028854;28;20061;-81
2022/03/17 07:20:28;;;;;;;15.63;2.20;;;;;;;;;;5012884;28;20134;-81
2022/03/17 07:22:54;;;;;;;10.88;1.70;;;;;;;;;;5012351;28;20061;-81
2022/03/17 07:25:23;;;;;;;12.20;2.75;;;;;;;;;;5028098;28;20060;-82
2022/03/17 07:27:50;;;;;;;9.00;1.83;;;;;;;;;;5028026;28;20124;-81
2022/03/17 07:30:18;;;;;;;10.98;2.00;;;;;;;;;;5024879;28;20045;-81
2022/03/17 07:32:59;;;;;;;8.25;1.77;;;;;;;;;;5022906;28;20058;-81
2022/03/17 07:35:26;;;;;;;14.82;2.30;;;;;;;;;;5031035;28;20140;-81
2022/03/17 07:37:53;;;;;;;9.32;1.83;;;;;;;;;;5035275;28;20092;-81
2022/03/17 07:40:20;;;;;;;12.30;2.13;;;;;;;;;;5012279;28;20053;-82
2022/03/17 07:42:46;;;;;;;11.68;1.90;;;;;;;;;;5013445;28;20060;-82
2022/03/17 07:45:12;;;;;;;10.07;1.90;;;;;;;;;;5018629;28;20109;-82
2022/03/17 07:47:46;;;;;;;10.88;1.98;;;;;;;;;;5037759;28;20100;-82
2022/03/17 07:50:13;;;;;;;12.32;1.90;;;;;;;;;;5013316;28;20635;-82
2022/03/17 07:52:39;;;;;;;8.07;1.83;;;;;;;;;;5014076;28;20104;-82
2022/03/17 07:55:06;;;;;;;10.63;1.58;;;;;;;;;;5013948;28;20041;-82
2022/03/17 07:57:35;;;;;;;8.95;1.75;;;;;;;;;;5010799;28;20057;-82
2022/03/17 08:00:05;;;;;;;10.50;1.70;;;;;;;;;;5011621;28;20050;-82
2022/03/17 08:02:31;;;;;;;7.93;1.45;;;;;;;;;;5009010;28;20104;-83
2022/03/17 08:04:59;;;;;;;10.95;1.80;;;;;;;;;;5028406;28;20065;-82
2022/03/17 08:07:27;;;;;;;10.65;1.45;;;;;;;;;;5017346;28;20832;-82
2022/03/17 08:09:53;;;;;;;11.75;2.47;;;;;;;;;;5030716;28;20062;-82
2022/03/17 08:12:20;;;;;;;10.20;1.80;;;;;;;;;;5009902;28;20058;-82
2022/03/17 08:14:47;;;;;;;13.55;1.63;;;;;;;;;;5028881;28;20069;-83
2022/03/17 08:17:13;;;;;;;10.43;1.63;;;;;;;;;;5012649;28;20151;-82
2022/03/17 08:19:40;;;;;;;8.15;1.48;;;;;;;;;;5011492;28;20054;-83
2022/03/17 08:22:06;;;;;;;6.75;1.40;;;;;;;;;;5029591;28;20523;-83
2022/03/17 08:24:32;;;;;;;9.23;1.65;;;;;;;;;;5029105;28;20089;-83
2022/03/17 08:27:01;;;;;;;7.72;1.77;;;;;;;;;;5027564;28;20081;-82
2022/03/17 08:29:29;;;;;;;7.22;1.27;;;;;;;;;;5013553;28;20058;-82
2022/03/17 08:31:55;;;;;;;7.10;1.83;;;;;;;;;;5026898;28;20058;-82
2022/03/17 08:34:22;;;;;;;6.50;1.20;;;;;;;;;;5025563;28;20069;-83
2022/03/17 08:36:54;;;;;;;11.85;1.90;;;;;;;;;;5010775;28;20141;-82
2022/03/17 08:39:20;;;;;;;14.65;1.88;;;;;;;;;;5010858;28;20058;-83
2022/03/17 08:41:47;;;;;;;9.93;1.40;;;;;;;;;;5010890;28;20058;-83
2022/03/17 08:44:13;;;;;;;16.20;1.92;;;;;;;;;;5028888;28;20058;-83
2022/03/17 08:49:25;;;;;;;8.68;2.45;;;;;;;;;;5027373;28;20065;-83
2022/03/17 08:51:52;;;;;;;11.27;1.98;;;;;;;;;;5028805;28;20061;-84
2022/03/17 08:54:20;;;;;;;18.13;2.15;;;;;;;;;;5029330;28;20050;-83
2022/03/17 08:56:47;;;;;;;9.38;1.73;;;;;;;;;;5010351;28;20098;-83
2022/03/17 08:59:13;;;;;;;16.25;2.45;;;;;;;;;;5025382;28;20057;-83
2022/03/17 09:01:39;;;;;;;13.57;2.17;;;;;;;;;;5028603;28;20104;-83
2022/03/17 09:04:06;;;;;;;11.27;1.65;;;;;;;;;;5027407;28;20097;-83
2022/03/17 09:06:36;;;;;;;10.20;1.60;;;;;;;;;;5024829;28;20061;-83
2022/03/17 09:09:03;;;;;;;;;;;;;;;;;;5029213;28;20049;-84
2022/03/17 09:11:32;;;;;;;10.57;2.00;;;;;;;;;;5022349;28;44910;-84
2022/03/17 09:13:58;;;;;;;15.07;2.33;;;;;;;;;;5028941;28;20053;-83
2022/03/17 09:16:25;;;;;;;11.52;2.15;;;;;;;;;;5011554;28;20053;-83
2022/03/17 09:18:52;;;;;;;14.02;3.15;;;;;;;;;;5012051;28;20173;-84
2022/03/17 09:21:18;;;;;;;6.50;1.42;;;;;;;;;;5028902;28;20046;-83
2022/03/17 09:23:44;;;;;;;9.50;1.60;;;;;;;;;;5020458;28;20505;-83
2022/03/17 09:26:11;;;;;;;16.08;2.20;;;;;;;;;;5017506;28;20133;-83
2022/03/17 09:28:38;;;;;;;18.52;2.03;;;;;;;;;;5028450;28;20085;-83
2022/03/17 09:31:04;;;;;;;7.55;1.65;;;;;;;;;;5027573;28;20085;-83
2022/03/17 09:33:30;;;;;;;13.05;1.63;;;;;;;;;;5028691;28;20154;-82
2022/03/17 09:35:57;;;;;;;7.82;2.03;;;;;;;;;;5010410;28;20112;-83
2022/03/17 09:38:24;;;;;;;9.20;2.10;;;;;;;;;;5029331;28;20108;-83
2022/03/17 09:40:50;;;;;;;7.00;1.40;;;;;;;;;;5010866;28;20062;-83
2022/03/17 09:43:21;;;;;;;15.10;1.75;;;;;;;;;;4996191;28;20054;-83
2022/03/17 09:45:52;;;;;;;11.63;2.72;;;;;;;;;;5007171;28;20614;-82
2022/03/17 09:48:21;;;;;;;13.15;1.63;;;;;;;;;;5026248;28;20133;-81
2022/03/17 09:50:49;;;;;;;10.65;1.40;;;;;;;;;;5033365;28;20112;-81
2022/03/17 09:53:15;;;;;;;10.05;2.00;;;;;;;;;;5031801;28;20597;-82
2022/03/17 09:55:43;;;;;;;13.35;2.72;;;;;;;;;;5027952;28;20583;-82
2022/03/17 09:58:10;;;;;;;9.75;1.77;;;;;;;;;;5033112;28;20062;-82
2022/03/17 10:00:49;;;;;;;6.68;1.20;;;;;;;;;;5015575;28;20046;-82
2022/03/17 10:03:17;;;;;;;6.53;1.10;;;;;;;;;;5031959;28;20137;-82
2022/03/17 10:05:44;;;;;;;8.65;1.45;;;;;;;;;;5014649;28;20084;-82
2022/03/17 10:08:11;;;;;;;6.35;1.10;;;;;;;;;;5015164;28;20623;-82
2022/03/17 10:10:38;;;;;;;8.27;1.60;;;;;;;;;;5014295;28;20058;-83
2022/03/17 10:13:11;;;;;;;11.88;1.48;;;;;;;;;;5011612;28;20046;-83
2022/03/17 10:15:37;;;;;;;10.40;1.30;;;;;;;;;;5020919;28;20516;-83
2022/03/17 10:18:19;;;;;;;6.47;1.60;;;;;;;;;;5031289;28;20843;-82
2022/03/17 10:20:46;;;;;;;4.47;1.30;;;;;;;;;;5014629;28;20068;-83
2022/03/17 10:23:13;;;;;;;6.97;1.50;;;;;;;;;;5029813;28;20507;-83
2022/03/17 10:25:39;;;;;;;5.25;1.23;;;;;;;;;;5031626;28;20130;-83
2022/03/17 10:28:07;;;;;;;8.32;1.63;;;;;;;;;;5014872;28;20053;-83
2022/03/17 10:30:35;;;;;;;6.50;1.27;;;;;;;;;;5011200;28;20963;-82
2022/03/17 10:33:03;;;;;;;7.40;1.35;;;;;;;;;;5012905;28;20050;-83
2022/03/17 10:35:38;;;;;;;7.15;1.50;;;;;;;;;;5030196;28;20082;-82
2022/03/17 10:38:09;;;;;;;9.52;1.52;;;;;;;;;;5031141;28;20104;-83
2022/03/17 10:40:35;;;;;;;9.77;1.70;;;;;;;;;;5010757;28;20057;-82
2022/03/17 10:43:14;;;;;;;8.23;1.80;;;;;;;;;;5017644;28;20101;-83
2022/03/17 10:45:41;;;;;;;7.95;1.45;;;;;;;;;;5013333;28;20053;-83
2022/03/17 10:48:08;;;;;;;5.30;1.42;;;;;;;;;;5031008;28;20109;-83
2022/03/17 10:50:39;;;;;;;4.70;1.30;;;;;;;;;;5012798;28;20524;-83
2022/03/17 10:53:06;;;;;;;3.85;1.10;;;;;;;;;;5013469;28;20053;-84
2022/03/17 10:55:33;;;;;;;5.22;1.30;;;;;;;;;;5008080;28;20053;-83
2022/03/17 10:58:16;;;;;;;7.18;1.65;;;;;;;;;;5031870;28;20046;-82
2022/03/17 11:00:50;;;;;;;7.15;1.52;;;;;;;;;;5026137;28;20050;-82
2022/03/17 11:03:18;;;;;;;4.97;1.23;;;;;;;;;;5031895;28;20943;-82
2022/03/17 11:05:44;;;;;;;8.35;1.23;;;;;;;;;;5001647;28;20086;-82
2022/03/17 11:08:11;;;;;;;7.50;1.45;;;;;;;;;;5010584;28;20058;-82
2022/03/17 11:10:41;;;;;;;8.25;1.55;;;;;;;;;;5014260;28;20056;-82
2022/03/17 11:13:11;;;;;;;6.63;1.75;;;;;;;;;;5015036;28;20045;-82
2022/03/17 11:15:38;;;;;;;9.35;1.63;;;;;;;;;;5006565;28;20060;-82
2022/03/17 11:18:06;;;;;;;6.85;1.58;;;;;;;;;;5026279;28;20058;-82
2022/03/17 11:20:33;;;;;;;7.25;1.42;;;;;;;;;;5013447;28;20057;-82
2022/03/17 11:23:19;;;;;;;10.43;2.08;;;;;;;;;;5030083;28;20170;-81
2022/03/17 11:25:54;;;;;;;6.70;1.83;;;;;;;;;;5028384;28;20543;-80
2022/03/17 11:28:32;;;;;;;11.30;2.10;;;;;;;;;;5013214;28;20060;-81
2022/03/17 11:30:59;;;;;;;11.55;1.70;;;;;;;;;;5030396;28;20049;-81
2022/03/17 11:33:31;;;;;;;9.73;1.30;;;;;;;;;;5012918;28;20899;-81
2022/03/17 11:35:59;;;;;;;11.02;1.88;;;;;;;;;;5013959;28;20054;-82
2022/03/17 11:38:27;;;;;;;6.10;1.75;;;;;;;;;;5013052;28;20050;-81
2022/03/17 11:41:16;;;;;;;8.68;1.83;;;;;;;;;;5012505;28;20120;-81
2022/03/17 11:43:45;;;;;;;7.45;1.70;;;;;;;;;;5030357;28;20124;-81
2022/03/17 11:46:13;;;;;;;6.15;1.73;;;;;;;;;;5029747;28;20112;-82
2022/03/17 11:48:40;;;;;;;8.55;1.85;;;;;;;;;;5010719;28;20056;-83
2022/03/17 11:51:07;;;;;;;9.73;1.60;;;;;;;;;;5005713;28;20082;-83
2022/03/17 11:53:51;;;;;;;5.95;1.45;;;;;;;;;;5032918;28;20088;-80
2022/03/17 11:56:47;;;;;;;7.45;1.20;;;;;;;;;;5013181;28;20110;-81
2022/03/17 11:59:14;;;;;;;6.40;1.30;;;;;;;;;;5010876;28;20061;-81
2022/03/17 12:01:42;;;;;;;9.32;1.75;;;;;;;;;;5027532;28;20039;-81
2022/03/17 12:04:17;;;;;;;9.02;1.90;;;;;;;;;;5027971;28;20116;-81
2022/03/17 12:06:50;;;;;;;7.55;1.58;;;;;;;;;;5008017;28;20045;-81
2022/03/17 12:09:28;;;;;;;6.53;1.58;;;;;;;;;;5012617;28;20113;-81
2022/03/17 12:11:55;;;;;;;6.28;1.60;;;;;;;;;;5011129;28;20946;-81
2022/03/17 12:14:25;;;;;;;7.93;2.00;;;;;;;;;;5003610;28;20063;-81
2022/03/17 12:17:18;;;;;;;8.60;1.70;;;;;;;;;;5022480;28;20092;-80
2022/03/17 12:19:48;;;;;;;7.82;1.70;;;;;;;;;;5014049;28;20116;-81
2022/03/17 12:22:15;;;;;;;;;;;;;;;;;;5015081;28;20050;-81
2022/03/17 12:24:47;;;;;;;8.60;1.90;;;;;;;;;;5012991;28;43809;-80
2022/03/17 12:27:13;;;;;;;;;;;;;;;;;;5014194;28;20054;-80
2022/03/17 12:29:40;;;;;;;5.53;1.50;;;;;;;;;;5027465;28;46227;-80
2022/03/17 12:32:11;;;;;;;8.60;1.50;;;;;;;;;;5012152;28;20046;-80
2022/03/17 12:34:38;;;;;;;5.55;1.50;;;;;;;;;;5012710;28;20603;-80
2022/03/17 12:37:06;;;;;;;9.23;2.05;;;;;;;;;;5015884;28;20053;-80
2022/03/17 12:39:36;;;;;;;9.57;1.83;;;;;;;;;;5011706;28;20116;-81
2022/03/17 12:42:12;;;;;;;9.65;1.50;;;;;;;;;;5012025;28;20069;-81
2022/03/17 12:44:46;;;;;;;5.97;1.63;;;;;;;;;;5011160;28;20062;-81
2022/03/17 12:47:12;;;;;;;5.20;1.52;;;;;;;;;;5030056;28;20136;-81
2022/03/17 12:49:40;;;;;;;9.20;1.88;;;;;;;;;;5012236;28;20112;-81
2022/03/17 12:52:14;;;;;;;9.77;1.83;;;;;;;;;;5011833;28;20054;-82
2022/03/17 12:54:41;;;;;;;7.30;1.40;;;;;;;;;;5030805;28;20053;-80
2022/03/17 12:57:07;;;;;;;6.80;1.60;;;;;;;;;;5013291;28;20057;-80
2022/03/17 12:59:34;;;;;;;6.97;1.75;;;;;;;;;;5029101;28;20054;-81
2022/03/17 13:02:00;;;;;;;8.93;1.52;;;;;;;;;;5010438;28;20124;-80
2022/03/17 13:04:27;;;;;;;5.43;1.48;;;;;;;;;;5029581;28;20124;-80
2022/03/17 13:06:56;;;;;;;7.60;1.80;;;;;;;;;;5030340;28;20058;-80
2022/03/17 13:09:27;;;;;;;7.80;1.38;;;;;;;;;;5013783;28;20049;-81
2022/03/17 13:14:47;;;;;;;5.40;1.40;;;;;;;;;;5030174;28;20101;-83
2022/03/17 13:17:13;;;;;;;8.45;1.45;;;;;;;;;;5009935;28;20054;-81
2022/03/17 13:19:46;;;;;;;4.68;1.02;;;;;;;;;;5013133;28;20054;-80
2022/03/17 13:22:13;;;;;;;7.65;1.48;;;;;;;;;;5030196;28;20528;-80
2022/03/17 13:24:39;;;;;;;9.40;2.10;;;;;;;;;;5013778;28;20050;-80
2022/03/17 13:27:06;;;;;;;13.05;2.00;;;;;;;;;;5035001;28;20488;-80
2022/03/17 13:29:35;;;;;;;5.95;1.50;;;;;;;;;;5016025;28;20108;-80
2022/03/17 13:32:03;;;;;;;9.80;1.70;;;;;;;;;;5014262;28;20054;-80
2022/03/17 13:34:31;;;;;;;8.95;1.70;;;;;;;;;;5015868;28;20058;-80
2022/03/17 13:36:58;;;;;;;7.28;1.88;;;;;;;;;;5016021;28;20057;-80
2022/03/17 13:39:28;;;;;;;5.70;1.40;;;;;;;;;;5010178;28;20093;-80
2022/03/17 13:42:03;;;;;;;7.70;1.83;;;;;;;;;;5016854;28;20176;-80
2022/03/17 13:44:45;;;;;;;9.40;1.40;;;;;;;;;;5016993;28;20054;-80
2022/03/17 13:47:16;;;;;;;5.45;1.25;;;;;;;;;;5014578;28;20058;-80
2022/03/17 13:50:03;;;;;;;6.55;1.75;;;;;;;;;;5016427;28;20072;-80
2022/03/17 13:52:29;;;;;;;9.05;1.48;;;;;;;;;;5009943;28;20054;-80
2022/03/17 13:54:56;;;;;;;8.68;1.63;;;;;;;;;;5032111;28;20073;-80
2022/03/17 13:57:22;;;;;;;6.22;1.42;;;;;;;;;;5028807;28;20058;-80
2022/03/17 13:59:49;;;;;;;10.27;1.23;;;;;;;;;;5033266;28;20053;-80
2022/03/17 14:02:17;;;;;;;10.75;2.00;;;;;;;;;;5027762;28;20058;-81
2022/03/17 14:04:56;;;;;;;5.97;1.40;;;;;;;;;;5017418;28;20065;-81
2022/03/17 14:07:23;;;;;;;7.20;1.40;;;;;;;;;;5001091;28;20058;-81
2022/03/17 14:09:49;;;;;;;12.23;1.65;;;;;;;;;;5015432;28;20101;-81
2022/03/17 14:12:16;;;;;;;6.38;1.70;;;;;;;;;;5033259;28;21113;-82
2022/03/17 14:14:43;;;;;;;6.53;1.30;;;;;;;;;;5032016;28;20105;-80
2022/03/17 14:17:10;;;;;;;8.15;1.45;;;;;;;;;;5013826;28;20081;-80
2022/03/17 14:19:37;;;;;;;9.52;1.98;;;;;;;;;;5014185;28;20053;-80
2022/03/17 14:24:50;;;;;;;7.00;1.40;;;;;;;;;;5029211;28;20057;-80
2022/03/17 14:27:17;;;;;;;9.50;1.25;;;;;;;;;;5026518;28;20126;-80
2022/03/17 14:29:44;;;;;;;9.48;1.58;;;;;;;;;;5012059;28;20054;-80
2022/03/17 14:32:10;;;;;;;11.35;2.15;;;;;;;;;;5029093;28;20065;-80
2022/03/17 14:34:37;;;;;;;8.13;1.80;;;;;;;;;;5033933;28;20066;-80
2022/03/17 14:37:03;;;;;;;7.90;1.55;;;;;;;;;;5014564;28;20054;-80
2022/03/17 14:39:30;;;;;;;7.57;1.50;;;;;;;;;;5014774;28;20109;-80
2022/03/17 14:41:56;;;;;;;16.15;3.15;;;;;;;;;;5015617;28;20104;-80
2022/03/17 14:44:23;;;;;;;7.07;1.63;;;;;;;;;;5016069;28;20135;-81
2022/03/17 14:46:51;;;;;;;7.15;1.58;;;;;;;;;;5015568;28;21644;-80
2022/03/17 14:49:17;;;;;;;9.18;1.55;;;;;;;;;;5015084;28;20060;-80
2022/03/17 14:51:44;;;;;;;8.45;1.33;;;;;;;;;;5030979;28;20054;-80
2022/03/17 14:54:28;;;;;;;8.80;1.95;;;;;;;;;;5018727;28;20062;-80